Time;durP1;ratioP1;P1;durP2;ratioP2;P2;SDS_P1;SDS_P2;PMS_P1;PMS_P2;Temp;Humidity;BMP_temperature;BMP_pressure;BME280_temperature;BME280_humidity;BME280_pressure;Samples;Min_cycle;Max_cycle;Signal;HPM_P1;HPM_P2
2023/09/21 00:01:29;;;;;;;;;;;;;;;;;;5111375;28;19908;-73
2023/09/21 00:03:55;;;;;;;;;;;;;;;;;;5111645;28;19994;-74
2023/09/21 00:07:24;;;;;;;;;;;;;;;;;;5112027;27;20294;-74
2023/09/21 00:09:50;;;;;;;;;;;;;;;;;;5111810;28;19918;-75
2023/09/21 00:13:59;;;;;;;;;;;;;;;;;;5112134;27;19916;-74
2023/09/21 00:16:27;;;;;;;;;;;;;;;;;;5112055;28;20336;-73
2023/09/21 00:19:11;;;;;;;;;;;;;;;;;;5091995;27;19913;-74
2023/09/21 00:24:49;;;;;;;;;;;;;;;;;;5091626;27;19923;-74
2023/09/21 00:27:17;;;;;;;;;;;;;;;;;;5091412;28;19935;-73
2023/09/21 00:29:43;;;;;;;;;;;;;;;;;;5091090;28;19908;-74
2023/09/21 00:32:37;;;;;;;;;;;;;;;;;;5071804;28;19917;-73
2023/09/21 00:35:07;;;;;;;;;;;;;;;;;;5071160;28;19917;-73
2023/09/21 00:37:33;;;;;;;;;;;;;;;;;;5071163;28;19980;-73
2023/09/21 00:39:59;;;;;;;;;;;;;;;;;;5071082;28;19966;-74
2023/09/21 00:46:27;;;;;;;;;;;;;;;;;;5112625;27;20279;-73
2023/09/21 00:51:05;;;;;;;;;;;;;;;;;;5070913;28;19923;-73
2023/09/21 00:53:31;;;;;;;;;;;;;;;;;;5071439;28;20007;-73
2023/09/21 00:55:57;;;;;;;;;;;;;;;;;;5071131;28;19959;-73
2023/09/21 00:58:23;;;;;;;;;;;;;;;;;;5070704;28;20376;-73
2023/09/21 01:03:27;;;;;;;;;;;;;;;;;;5111618;27;19916;-73
2023/09/21 01:08:05;;;;;;;;;;;;;;;;;;5111877;27;19938;-73
2023/09/21 01:14:16;;;;;;;;;;;;;;;;;;5092259;27;19917;-74
2023/09/21 01:19:36;;;;;;;;;;;;;;;;;;5092312;27;19916;-74
2023/09/21 01:26:04;;;;;;;;;;;;;;;;;;5091154;27;19919;-74
2023/09/21 01:28:30;;;;;;;;;;;;;;;;;;5091397;28;19912;-74
2023/09/21 01:32:05;;;;;;;;;;;;;;;;;;5111894;27;20287;-74
2023/09/21 01:34:33;;;;;;;;;;;;;;;;;;5111719;28;19998;-73
2023/09/21 01:37:47;;;;;;;;;;;;;;;;;;5092350;28;19916;-74
2023/09/21 01:40:16;;;;;;;;;;;;;;;;;;5091287;28;20311;-74
2023/09/21 01:44:00;;;;;;;;;;;;;;;;;;5112604;27;20275;-74
2023/09/21 01:46:26;;;;;;;;;;;;;;;;;;5111377;28;20007;-74
2023/09/21 01:48:53;;;;;;;;;;;;;;;;;;5111759;28;19908;-75
2023/09/21 01:51:19;;;;;;;;;;;;;;;;;;5111669;28;19915;-74
2023/09/21 01:53:45;;;;;;;;;;;;;;;;;;5111257;28;19912;-75
2023/09/21 01:56:11;;;;;;;;;;;;;;;;;;5111898;28;19999;-75
2023/09/21 01:58:37;;;;;;;;;;;;;;;;;;5111479;28;19939;-74
2023/09/21 02:02:34;;;;;;;;;;;;;;;;;;5092111;28;19918;-76
2023/09/21 02:05:24;;;;;;;;;;;;;;;;;;5071371;28;19941;-75
2023/09/21 02:08:57;;;;;;;;;;;;;;;;;;5071807;28;19917;-73
2023/09/21 02:11:22;;;;;;;;;;;;;;;;;;5071185;28;19920;-73
2023/09/21 02:13:48;;;;;;;;;;;;;;;;;;5070693;28;19909;-76
2023/09/21 02:20:24;;;;;;;;;;;;;;;;;;5112606;27;19916;-75
2023/09/21 02:27:41;;;;;;;;;;;;;;;;;;5132264;27;19916;-75
2023/09/21 02:30:17;;;;;;;;;;;;;;;;;;5132264;28;19933;-75
2023/09/21 02:32:43;;;;;;;;;;;;;;;;;;5132733;28;19912;-74
2023/09/21 02:37:01;;;;;;;;;;;;;;;;;;5112005;27;19922;-74
2023/09/21 02:39:28;;;;;;;;;;;;;;;;;;5111895;28;19950;-74
2023/09/21 02:41:54;;;;;;;;;;;;;;;;;;5111309;28;19930;-74
2023/09/21 02:44:20;;;;;;;;;;;;;;;;;;5111716;28;19908;-74
2023/09/21 02:48:22;;;;;;;;;;;;;;;;;;5111856;27;20287;-73
2023/09/21 02:50:48;;;;;;;;;;;;;;;;;;5111363;28;20007;-73
2023/09/21 02:53:14;;;;;;;;;;;;;;;;;;5111690;28;19977;-73
2023/09/21 02:55:40;;;;;;;;;;;;;;;;;;5111259;28;20360;-73
2023/09/21 02:58:40;;;;;;;;;;;;;;;;;;5111898;27;19923;-73
2023/09/21 03:02:32;;;;;;;;;;;;;;;;;;5153434;27;20010;-73
2023/09/21 03:05:00;;;;;;;;;;;;;;;;;;5152642;27;19964;-73
2023/09/21 03:07:27;;;;;;;;;;;;;;;;;;5152965;27;19907;-73
2023/09/21 03:10:39;;;;;;;;;;;;;;;;;;5091132;27;19916;-74
2023/09/21 03:13:05;;;;;;;;;;;;;;;;;;5091413;28;19998;-74
2023/09/21 03:18:03;;;;;;;;;;;;;;;;;;5111427;27;20257;-74
2023/09/21 03:20:32;;;;;;;;;;;;;;;;;;5112350;28;19912;-75
2023/09/21 03:23:45;;;;;;;;;;;;;;;;;;5112512;27;19916;-75
2023/09/21 03:26:11;;;;;;;;;;;;;;;;;;5111793;28;20356;-75
2023/09/21 03:28:37;;;;;;;;;;;;;;;;;;5111741;28;19969;-75
2023/09/21 03:31:19;;;;;;;;;;;;;;;;;;5111591;27;19922;-74
2023/09/21 03:35:56;;;;;;;;;;;;;;;;;;5112132;27;19922;-73
2023/09/21 03:38:22;;;;;;;;;;;;;;;;;;5111370;28;19994;-73
2023/09/21 03:41:52;;;;;;;;;;;;;;;;;;5112439;27;19916;-73
2023/09/21 03:44:19;;;;;;;;;;;;;;;;;;5111680;28;19912;-73
2023/09/21 03:49:34;;;;;;;;;;;;;;;;;;5091506;27;19919;-73
2023/09/21 03:52:00;;;;;;;;;;;;;;;;;;5091047;28;19938;-73
2023/09/21 03:54:26;;;;;;;;;;;;;;;;;;5091444;28;19934;-72
2023/09/21 03:56:52;;;;;;;;;;;;;;;;;;5091360;28;19908;-73
2023/09/21 03:59:18;;;;;;;;;;;;;;;;;;5089542;28;19916;-73
2023/09/21 04:03:06;;;;;;;;;;;;;;;;;;5112395;27;19922;-73
2023/09/21 04:05:35;;;;;;;;;;;;;;;;;;5111834;28;19916;-74
2023/09/21 04:08:01;;;;;;;;;;;;;;;;;;5111296;28;19914;-74
2023/09/21 04:12:03;;;;;;;;;;;;;;;;;;5112102;27;19916;-73
2023/09/21 04:14:29;;;;;;;;;;;;;;;;;;5111326;28;19912;-73
2023/09/21 04:21:01;;;;;;;;;;;;;;;;;;5091459;27;19923;-74
2023/09/21 04:23:28;;;;;;;;;;;;;;;;;;5091430;28;19912;-74
2023/09/21 04:29:54;;;;;;;;;;;;;;;;;;5111818;27;19922;-74
2023/09/21 04:34:18;;;;;;;;;;;;;;;;;;5111635;27;19922;-73
2023/09/21 04:36:47;;;;;;;;;;;;;;;;;;5111746;28;20010;-73
2023/09/21 04:42:56;;;;;;;;;;;;;;;;;;5091229;27;19939;-74
2023/09/21 04:45:22;;;;;;;;;;;;;;;;;;5091512;28;19912;-75
2023/09/21 04:47:55;;;;;;;;;;;;;;;;;;5091329;28;20323;-74
2023/09/21 04:56:53;;;;;;;;;;;;;;;;;;5111537;27;19916;-73
2023/09/21 04:59:41;;;;;;;;;;;;;;;;;;5132343;27;19911;-73
2023/09/21 05:02:09;;;;;;;;;;;;;;;;;;5132218;27;19915;-73
2023/09/21 05:04:51;;;;;;;;;;;;;;;;;;5091483;27;19917;-73
2023/09/21 05:07:17;;;;;;;;;;;;;;;;;;5091353;28;20002;-73
2023/09/21 05:16:40;;;;;;;;;;;;;;;;;;5105336;27;19920;-72
2023/09/21 05:22:32;;;;;;;;;;;;;;;;;;5106403;27;19916;-73
2023/09/21 05:29:44;;;;;;;;;;;;;;;;;;5098887;27;19920;-71
2023/09/21 05:32:10;;;;;;;;;;;;;;;;;;5106355;28;20299;-72
2023/09/21 05:40:34;;;;;;;;;;;;;;;;;;5086961;27;19927;-73
2023/09/21 05:43:00;;;;;;;;;;;;;;;;;;5087027;28;19966;-69
2023/09/21 05:47:33;;;;;;;;;;;;;;;;;;5105123;27;19919;-71
2023/09/21 05:51:04;;;;;;;;;;;;;;;;;;5084569;27;19924;-70
2023/09/21 05:54:03;;;;;;;;;;;;;;;;;;5085172;28;19951;-70
2023/09/21 05:56:30;;;;;;;;;;;;;;;;;;5087424;28;19912;-71
2023/09/21 06:01:17;;;;;;;;;;;;;;;;;;5139686;27;19920;-71
2023/09/21 06:09:25;;;;;;;;;;;;;;;;;;5082709;27;19923;-70
2023/09/21 06:11:51;;;;;;;;;;;;;;;;;;5062540;28;19917;-74
2023/09/21 06:14:17;;;;;;;;;;;;;;;;;;5069186;28;19984;-73
2023/09/21 06:16:43;;;;;;;;;;;;;;;;;;5071418;28;19963;-74
2023/09/21 06:19:11;;;;;;;;;;;;;;;;;;5068605;28;19920;-72
2023/09/21 06:21:37;;;;;;;;;;;;;;;;;;5058225;28;19917;-74
2023/09/21 06:24:45;;;;;;;;;;;;;;;;;;5104035;27;19916;-72
2023/09/21 06:27:12;;;;;;;;;;;;;;;;;;5087001;28;19934;-71
2023/09/21 06:29:38;;;;;;;;;;;;;;;;;;5084851;28;19912;-70
2023/09/21 06:32:07;;;;;;;;;;;;;;;;;;5083269;28;19920;-72
2023/09/21 06:36:17;;;;;;;;;;;;;;;;;;5082216;28;19919;-71
2023/09/21 06:38:43;;;;;;;;;;;;;;;;;;5078799;28;20006;-72
2023/09/21 06:41:09;;;;;;;;;;;;;;;;;;5082618;28;20617;-72
2023/09/21 06:45:41;;;;;;;;;;;;;;;;;;5139855;27;20256;-71
2023/09/21 06:50:16;;;;;;;;;;;;;;;;;;5068693;28;19923;-70
2023/09/21 06:54:00;;;;;;;;;;;;;;;;;;5087406;27;19934;-70
2023/09/21 06:56:31;;;;;;;;;;;;;;;;;;5065843;28;19923;-70
2023/09/21 06:59:06;;;;;;;;;;;;;;;;;;5067801;28;19912;-70
2023/09/21 07:05:10;;;;;;;;;;;;;;;;;;5086117;27;19924;-71
2023/09/21 07:07:51;;;;;;;;;;;;;;;;;;5062805;27;2084791;-72
2023/09/21 07:10:17;;;;;;;;;;;;;;;;;;5134157;27;19912;-70
2023/09/21 07:12:45;;;;;;;;;;;;;;;;;;5138853;27;19920;-71
2023/09/21 07:16:49;;;;;;;;;;;;;;;;;;5096597;27;20361;-70
2023/09/21 07:19:15;;;;;;;;;;;;;;;;;;5084608;28;19913;-69
2023/09/21 07:28:19;;;;;;;;;;;;;;;;;;5083661;27;19917;-72
2023/09/21 07:36:36;;;;;;;;;;;;;;;;;;5087365;27;20632;-71
2023/09/21 07:39:03;;;;;;;;;;;;;;;;;;5084777;28;19913;-70
2023/09/21 07:42:57;;;;;;;;;;;;;;;;;;5067008;28;19920;-72
2023/09/21 07:45:24;;;;;;;;;;;;;;;;;;5059041;28;19912;-72
2023/09/21 07:47:51;;;;;;;;;;;;;;;;;;5057163;28;20622;-72
2023/09/21 07:50:23;;;;;;;;;;;;;;;;;;5067930;28;20284;-71
2023/09/21 07:52:49;;;;;;;;;;;;;;;;;;5028378;28;19917;-71
2023/09/21 07:55:15;;;;;;;;;;;;;;;;;;5044221;28;20250;-71
2023/09/21 07:57:41;;;;;;;;;;;;;;;;;;5069060;28;19909;-72
2023/09/21 08:00:09;;;;;;;;;;;;;;;;;;5050671;28;19917;-75
2023/09/21 08:03:57;;;;;;;;;;;;;;;;;;5102947;27;19940;-75
2023/09/21 08:06:27;;;;;;;;;;;;;;;;;;5093443;28;20133;-74
2023/09/21 08:08:53;;;;;;;;;;;;;;;;;;5126400;27;20268;-75
2023/09/21 08:11:19;;;;;;;;;;;;;;;;;;5097478;28;19996;-74
2023/09/21 08:13:45;;;;;;;;;;;;;;;;;;5104925;28;19916;-74
2023/09/21 08:16:10;;;;;;;;;;;;;;;;;;5086767;28;20038;-72
2023/09/21 08:18:36;;;;;;;;;;;;;;;;;;5086802;28;19916;-74
2023/09/21 08:21:17;;;;;;;;;;;;;;;;;;5091123;27;19927;-73
2023/09/21 08:23:43;;;;;;;;;;;;;;;;;;5088337;28;19942;-73
2023/09/21 08:26:13;;;;;;;;;;;;;;;;;;5079500;28;20467;-73
2023/09/21 08:29:24;;;;;;;;;;;;;;;;;;5106702;27;19919;-69
2023/09/21 08:31:50;;;;;;;;;;;;;;;;;;5088017;28;20383;-70
2023/09/21 08:34:44;;;;;;;;;;;;;;;;;;5127984;27;19919;-69
2023/09/21 08:37:10;;;;;;;;;;;;;;;;;;5125338;28;20035;-69
2023/09/21 08:41:56;;;;;;;;;;;;;;;;;;5079641;27;19916;-70
2023/09/21 08:44:22;;;;;;;;;;;;;;;;;;5082942;28;19913;-71
2023/09/21 08:48:44;;;;;;;;;;;;;;;;;;5084208;27;19921;-70
2023/09/21 08:51:11;;;;;;;;;;;;;;;;;;5074946;28;19943;-71
2023/09/21 08:53:39;;;;;;;;;;;;;;;;;;5067107;28;19952;-70
2023/09/21 08:56:05;;;;;;;;;;;;;;;;;;5079934;28;19999;-70
2023/09/21 08:58:34;;;;;;;;;;;;;;;;;;5068327;28;20059;-73
2023/09/21 09:01:01;;;;;;;;;;;;;;;;;;5074155;28;19924;-72
2023/09/21 09:03:27;;;;;;;;;;;;;;;;;;5068822;28;20284;-70
2023/09/21 09:05:58;;;;;;;;;;;;;;;;;;5078466;28;19921;-71
2023/09/21 09:08:24;;;;;;;;;;;;;;;;;;5072199;28;19928;-73
2023/09/21 09:10:51;;;;;;;;;;;;;;;;;;5077822;28;19956;-71
2023/09/21 09:13:17;;;;;;;;;;;;;;;;;;5079539;28;21579;-71
2023/09/21 09:15:45;;;;;;;;;;;;;;;;;;5062552;28;19913;-70
2023/09/21 09:18:11;;;;;;;;;;;;;;;;;;5071469;28;19963;-70
2023/09/21 09:20:37;;;;;;;;;;;;;;;;;;5071826;28;20498;-68
2023/09/21 09:23:03;;;;;;;;;;;;;;;;;;5068690;28;19995;-66
2023/09/21 09:25:29;;;;;;;;;;;;;;;;;;5082351;28;19917;-71
2023/09/21 09:27:55;;;;;;;;;;;;;;;;;;5082990;28;20240;-68
2023/09/21 09:30:22;;;;;;;;;;;;;;;;;;5086148;28;20332;-69
2023/09/21 09:32:50;;;;;;;;;;;;;;;;;;5086083;28;20003;-70
2023/09/21 09:35:17;;;;;;;;;;;;;;;;;;5085377;28;19966;-70
2023/09/21 09:37:43;;;;;;;;;;;;;;;;;;5087952;28;19908;-70
2023/09/21 09:40:10;;;;;;;;;;;;;;;;;;5076206;28;19963;-71
2023/09/21 09:43:45;;;;;;;;;;;;;;;;;;5085957;28;19958;-71
2023/09/21 09:46:12;;;;;;;;;;;;;;;;;;5083057;28;19965;-71
2023/09/21 09:48:39;;;;;;;;;;;;;;;;;;5069256;28;19999;-71
2023/09/21 09:51:05;;;;;;;;;;;;;;;;;;5064219;28;19951;-71
2023/09/21 09:53:34;;;;;;;;;;;;;;;;;;5065466;28;20365;-71
2023/09/21 09:56:00;;;;;;;;;;;;;;;;;;5067506;28;20405;-71
2023/09/21 09:58:26;;;;;;;;;;;;;;;;;;5067639;28;19908;-71
2023/09/21 10:00:52;;;;;;;;;;;;;;;;;;5073272;28;19916;-71
2023/09/21 10:03:18;;;;;;;;;;;;;;;;;;5086895;28;19917;-71
2023/09/21 10:05:46;;;;;;;;;;;;;;;;;;5085278;28;19915;-71
2023/09/21 10:08:12;;;;;;;;;;;;;;;;;;5085793;28;19908;-72
2023/09/21 10:10:38;;;;;;;;;;;;;;;;;;5085989;28;19931;-73
2023/09/21 10:13:05;;;;;;;;;;;;;;;;;;5085234;28;19936;-72
2023/09/21 10:15:33;;;;;;;;;;;;;;;;;;5077377;28;21964;-72
2023/09/21 10:18:00;;;;;;;;;;;;;;;;;;5063600;28;20032;-72
2023/09/21 10:20:32;;;;;;;;;;;;;;;;;;5086513;28;19962;-71
2023/09/21 10:22:58;;;;;;;;;;;;;;;;;;5082759;28;19920;-72
2023/09/21 10:25:24;;;;;;;;;;;;;;;;;;5078548;28;19919;-70
2023/09/21 10:27:50;;;;;;;;;;;;;;;;;;5086168;28;19912;-70
2023/09/21 10:30:18;;;;;;;;;;;;;;;;;;5087822;28;19919;-69
2023/09/21 10:32:44;;;;;;;;;;;;;;;;;;5088446;28;20280;-72
2023/09/21 10:35:11;;;;;;;;;;;;;;;;;;5085668;28;19962;-70
2023/09/21 10:37:37;;;;;;;;;;;;;;;;;;5084887;28;19912;-70
2023/09/21 10:40:03;;;;;;;;;;;;;;;;;;5084281;28;19908;-69
2023/09/21 10:42:30;;;;;;;;;;;;;;;;;;5084801;28;19920;-71
2023/09/21 10:44:56;;;;;;;;;;;;;;;;;;5085689;28;19972;-72
2023/09/21 10:47:22;;;;;;;;;;;;;;;;;;5084686;28;19919;-71
2023/09/21 10:49:48;;;;;;;;;;;;;;;;;;5075165;28;19912;-71
2023/09/21 10:52:14;;;;;;;;;;;;;;;;;;5085428;28;19912;-72
2023/09/21 10:54:40;;;;;;;;;;;;;;;;;;5075954;28;20361;-73
2023/09/21 10:57:06;;;;;;;;;;;;;;;;;;5072526;28;19915;-71
2023/09/21 10:59:32;;;;;;;;;;;;;;;;;;5072755;28;19913;-72
2023/09/21 11:01:58;;;;;;;;;;;;;;;;;;5072644;28;20010;-71
2023/09/21 11:04:24;;;;;;;;;;;;;;;;;;5071684;28;19908;-72
2023/09/21 11:06:50;;;;;;;;;;;;;;;;;;5071809;28;19923;-73
2023/09/21 11:09:16;;;;;;;;;;;;;;;;;;5069433;28;19922;-72
2023/09/21 11:11:44;;;;;;;;;;;;;;;;;;5072275;28;19969;-72
2023/09/21 11:14:10;;;;;;;;;;;;;;;;;;5069977;28;20419;-71
2023/09/21 11:16:36;;;;;;;;;;;;;;;;;;5074710;28;19948;-70
2023/09/21 11:19:02;;;;;;;;;;;;;;;;;;5072358;28;20007;-71
2023/09/21 11:21:28;;;;;;;;;;;;;;;;;;5072963;28;19973;-69
2023/09/21 11:23:55;;;;;;;;;;;;;;;;;;5073739;28;19920;-69
2023/09/21 11:26:21;;;;;;;;;;;;;;;;;;5073981;28;19943;-69
2023/09/21 11:28:47;;;;;;;;;;;;;;;;;;5075236;28;19908;-69
2023/09/21 11:31:13;;;;;;;;;;;;;;;;;;5080444;28;20288;-69
2023/09/21 11:33:40;;;;;;;;;;;;;;;;;;5073797;28;19909;-68
2023/09/21 11:36:06;;;;;;;;;;;;;;;;;;5073482;28;19958;-69
2023/09/21 11:38:36;;;;;;;;;;;;;;;;;;5074211;28;19921;-69
2023/09/21 11:41:01;;;;;;;;;;;;;;;;;;5070405;28;19908;-68
2023/09/21 11:43:29;;;;;;;;;;;;;;;;;;5070714;28;19921;-69
2023/09/21 11:45:55;;;;;;;;;;;;;;;;;;5072114;28;19993;-69
2023/09/21 11:48:23;;;;;;;;;;;;;;;;;;5071282;28;19974;-69
2023/09/21 11:50:49;;;;;;;;;;;;;;;;;;5072098;28;19947;-69
2023/09/21 11:53:19;;;;;;;;;;;;;;;;;;5070678;28;20001;-68
2023/09/21 11:55:46;;;;;;;;;;;;;;;;;;5072276;28;19917;-68
2023/09/21 11:58:12;;;;;;;;;;;;;;;;;;5070434;28;19912;-68
2023/09/21 12:00:44;;;;;;;;;;;;;;;;;;5071864;28;19915;-68
2023/09/21 12:03:12;;;;;;;;;;;;;;;;;;5071832;28;20022;-68
2023/09/21 12:05:39;;;;;;;;;;;;;;;;;;5069811;28;20007;-68
2023/09/21 12:08:05;;;;;;;;;;;;;;;;;;5071092;28;19918;-70
2023/09/21 12:10:31;;;;;;;;;;;;;;;;;;5071733;28;19913;-69
2023/09/21 12:12:57;;;;;;;;;;;;;;;;;;5073982;28;19909;-69
2023/09/21 12:15:23;;;;;;;;;;;;;;;;;;5074225;28;20011;-69
2023/09/21 12:17:49;;;;;;;;;;;;;;;;;;5072253;28;19917;-69
2023/09/21 12:20:18;;;;;;;;;;;;;;;;;;5074210;28;19913;-69
2023/09/21 12:22:44;;;;;;;;;;;;;;;;;;5073476;28;19928;-70
2023/09/21 12:25:10;;;;;;;;;;;;;;;;;;5073413;28;19958;-69
2023/09/21 12:27:37;;;;;;;;;;;;;;;;;;5071798;28;19999;-70
2023/09/21 12:30:05;;;;;;;;;;;;;;;;;;5072583;28;19913;-69
2023/09/21 12:32:31;;;;;;;;;;;;;;;;;;5072290;28;20331;-70
2023/09/21 12:34:57;;;;;;;;;;;;;;;;;;5072538;28;19915;-68
2023/09/21 12:37:24;;;;;;;;;;;;;;;;;;5070145;28;19912;-70
2023/09/21 12:39:50;;;;;;;;;;;;;;;;;;5071741;28;19909;-70
2023/09/21 12:42:16;;;;;;;;;;;;;;;;;;5072222;28;19936;-69
2023/09/21 12:44:42;;;;;;;;;;;;;;;;;;5073040;28;19913;-68
2023/09/21 12:47:09;;;;;;;;;;;;;;;;;;5075973;28;19916;-68
2023/09/21 12:49:35;;;;;;;;;;;;;;;;;;5069937;28;20225;-71
2023/09/21 12:52:01;;;;;;;;;;;;;;;;;;5073594;28;19920;-70
2023/09/21 12:54:27;;;;;;;;;;;;;;;;;;5074113;28;19908;-71
2023/09/21 12:56:53;;;;;;;;;;;;;;;;;;5072659;28;19982;-70
2023/09/21 12:59:19;;;;;;;;;;;;;;;;;;5073502;28;19912;-71
2023/09/21 13:01:45;;;;;;;;;;;;;;;;;;5071913;28;20010;-70
2023/09/21 13:04:11;;;;;;;;;;;;;;;;;;5073256;28;19916;-71
2023/09/21 13:06:38;;;;;;;;;;;;;;;;;;5073656;28;20007;-71
2023/09/21 13:09:06;;;;;;;;;;;;;;;;;;5073613;28;20391;-72
2023/09/21 13:11:32;;;;;;;;;;;;;;;;;;5074141;28;19913;-72
2023/09/21 13:14:00;;;;;;;;;;;;;;;;;;5073923;28;19962;-72
2023/09/21 13:16:26;;;;;;;;;;;;;;;;;;5073271;28;20003;-72
2023/09/21 13:18:52;;;;;;;;;;;;;;;;;;5073821;28;20340;-72
2023/09/21 13:21:18;;;;;;;;;;;;;;;;;;5073878;28;20328;-72
2023/09/21 13:23:44;;;;;;;;;;;;;;;;;;5073400;28;19970;-72
2023/09/21 13:26:10;;;;;;;;;;;;;;;;;;5073896;28;19916;-72
2023/09/21 13:28:36;;;;;;;;;;;;;;;;;;5072191;28;20065;-72
2023/09/21 13:31:02;;;;;;;;;;;;;;;;;;5074028;28;19908;-72
2023/09/21 13:33:28;;;;;;;;;;;;;;;;;;5073658;28;19970;-72
2023/09/21 13:35:56;;;;;;;;;;;;;;;;;;5073186;28;20029;-72
2023/09/21 13:38:22;;;;;;;;;;;;;;;;;;5073795;28;19909;-72
2023/09/21 13:40:48;;;;;;;;;;;;;;;;;;5073565;28;20275;-72
2023/09/21 13:43:15;;;;;;;;;;;;;;;;;;5073009;28;19967;-72
2023/09/21 13:45:41;;;;;;;;;;;;;;;;;;5073608;28;19908;-72
2023/09/21 14:02:51;;;;;;;;;;;;;;;;;;5091209;28;20381;-71
2023/09/21 14:05:19;;;;;;;;;;;;;;;;;;5090699;28;20314;-71
2023/09/21 14:07:45;;;;;;;;;;;;;;;;;;5091439;28;19909;-73
2023/09/21 14:10:12;;;;;;;;;;;;;;;;;;5091017;28;20400;-71
2023/09/21 14:12:39;;;;;;;;;;;;;;;;;;5090637;28;19909;-73
2023/09/21 14:15:05;;;;;;;;;;;;;;;;;;5091000;28;19999;-73
2023/09/21 14:17:31;;;;;;;;;;;;;;;;;;5089661;28;19952;-73
2023/09/21 14:19:57;;;;;;;;;;;;;;;;;;5090308;28;19948;-72
2023/09/21 14:22:23;;;;;;;;;;;;;;;;;;5089432;28;19954;-72
2023/09/21 14:24:51;;;;;;;;;;;;;;;;;;5090777;28;19912;-73
2023/09/21 14:27:17;;;;;;;;;;;;;;;;;;5090260;28;19915;-73
2023/09/21 14:29:43;;;;;;;;;;;;;;;;;;5089235;28;19908;-73
2023/09/21 14:32:08;;;;;;;;;;;;;;;;;;5090389;28;19967;-73
2023/09/21 14:34:35;;;;;;;;;;;;;;;;;;5090132;28;19916;-73
2023/09/21 14:37:05;;;;;;;;;;;;;;;;;;5090510;28;19954;-72
2023/09/21 14:39:31;;;;;;;;;;;;;;;;;;5090499;28;19999;-72
2023/09/21 14:41:57;;;;;;;;;;;;;;;;;;5089963;28;19959;-73
2023/09/21 14:44:23;;;;;;;;;;;;;;;;;;5090514;28;19914;-73
2023/09/21 14:46:49;;;;;;;;;;;;;;;;;;5090067;28;19908;-73
2023/09/21 14:49:14;;;;;;;;;;;;;;;;;;5089649;28;19908;-76
2023/09/21 14:53:45;;;;;;;;;;;;;;;;;;5091384;28;19917;-75
2023/09/21 14:56:10;;;;;;;;;;;;;;;;;;5090745;28;19919;-75
2023/09/21 14:58:37;;;;;;;;;;;;;;;;;;5091072;28;19916;-74
2023/09/21 15:01:04;;;;;;;;;;;;;;;;;;5090937;28;20291;-74
2023/09/21 15:03:54;;;;;;;;;;;;;;;;;;5091564;27;20380;-73
2023/09/21 15:06:19;;;;;;;;;;;;;;;;;;5091025;28;20398;-73
2023/09/21 15:08:45;;;;;;;;;;;;;;;;;;5089349;28;19951;-73
2023/09/21 15:11:11;;;;;;;;;;;;;;;;;;5089603;28;19912;-73
2023/09/21 15:13:37;;;;;;;;;;;;;;;;;;5090882;28;19909;-72
2023/09/21 15:16:03;;;;;;;;;;;;;;;;;;5090451;28;19912;-72
2023/09/21 15:18:29;;;;;;;;;;;;;;;;;;5090789;28;19912;-72
2023/09/21 15:20:55;;;;;;;;;;;;;;;;;;5090783;28;19951;-72
2023/09/21 15:23:21;;;;;;;;;;;;;;;;;;5090252;28;19920;-72
2023/09/21 15:25:47;;;;;;;;;;;;;;;;;;5090722;28;19908;-72
2023/09/21 15:28:13;;;;;;;;;;;;;;;;;;5090883;28;19909;-72
2023/09/21 15:30:40;;;;;;;;;;;;;;;;;;5090158;28;19912;-72
2023/09/21 15:33:06;;;;;;;;;;;;;;;;;;5090621;28;19915;-72
2023/09/21 15:35:32;;;;;;;;;;;;;;;;;;5090574;28;20045;-72
2023/09/21 15:37:58;;;;;;;;;;;;;;;;;;5090278;28;20449;-73
2023/09/21 15:40:24;;;;;;;;;;;;;;;;;;5090539;28;19915;-72
2023/09/21 15:42:51;;;;;;;;;;;;;;;;;;5089167;28;19931;-72
2023/09/21 15:46:42;;;;;;;;;;;;;;;;;;5091899;27;19916;-72
2023/09/21 15:49:08;;;;;;;;;;;;;;;;;;5091146;28;20320;-72
2023/09/21 15:54:01;;;;;;;;;;;;;;;;;;5091507;27;19922;-71
2023/09/21 15:58:56;;;;;;;;;;;;;;;;;;5091112;27;20367;-71
2023/09/21 16:01:22;;;;;;;;;;;;;;;;;;5091184;28;19912;-72
2023/09/21 16:03:48;;;;;;;;;;;;;;;;;;5090978;28;19916;-71
2023/09/21 16:06:14;;;;;;;;;;;;;;;;;;5090822;28;19908;-72
2023/09/21 16:08:40;;;;;;;;;;;;;;;;;;5091010;28;19954;-72
2023/09/21 16:11:06;;;;;;;;;;;;;;;;;;5091150;28;20003;-73
2023/09/21 16:16:05;;;;;;;;;;;;;;;;;;5092039;27;20370;-73
2023/09/21 16:18:31;;;;;;;;;;;;;;;;;;5091272;28;20008;-73
2023/09/21 16:20:57;;;;;;;;;;;;;;;;;;5090766;28;19915;-73
2023/09/21 16:23:25;;;;;;;;;;;;;;;;;;5090741;28;19908;-72
2023/09/21 16:25:50;;;;;;;;;;;;;;;;;;5090596;28;20337;-72
2023/09/21 16:30:10;;;;;;;;;;;;;;;;;;5091424;27;19922;-71
2023/09/21 16:32:36;;;;;;;;;;;;;;;;;;5091222;28;20287;-71
2023/09/21 16:35:02;;;;;;;;;;;;;;;;;;5090816;28;19936;-72
2023/09/21 16:37:28;;;;;;;;;;;;;;;;;;5090984;28;19908;-72
2023/09/21 16:42:06;;;;;;;;;;;;;;;;;;5091449;27;20291;-72
2023/09/21 16:46:47;;;;;;;;;;;;;;;;;;5091122;28;20307;-72
2023/09/21 16:49:14;;;;;;;;;;;;;;;;;;5089859;28;19912;-72
2023/09/21 16:51:40;;;;;;;;;;;;;;;;;;5089731;28;20382;-72
2023/09/21 16:54:06;;;;;;;;;;;;;;;;;;5090771;28;19912;-72
2023/09/21 16:56:34;;;;;;;;;;;;;;;;;;5090970;28;19912;-72
2023/09/21 16:59:00;;;;;;;;;;;;;;;;;;5091152;28;19914;-73
2023/09/21 17:02:53;;;;;;;;;;;;;;;;;;5091059;28;19924;-73
2023/09/21 17:07:30;;;;;;;;;;;;;;;;;;5112059;27;19916;-71
2023/09/21 17:09:56;;;;;;;;;;;;;;;;;;5111285;28;20290;-73
2023/09/21 17:12:22;;;;;;;;;;;;;;;;;;5111541;28;19961;-72
2023/09/21 17:14:48;;;;;;;;;;;;;;;;;;5111595;28;19914;-72
2023/09/21 17:17:14;;;;;;;;;;;;;;;;;;5110164;28;19908;-72
2023/09/21 17:19:40;;;;;;;;;;;;;;;;;;5112100;28;20335;-72
2023/09/21 17:22:06;;;;;;;;;;;;;;;;;;5111062;28;19962;-72
2023/09/21 17:24:32;;;;;;;;;;;;;;;;;;5111442;28;19966;-72
2023/09/21 17:28:13;;;;;;;;;;;;;;;;;;5152986;27;19915;-72
2023/09/21 17:30:39;;;;;;;;;;;;;;;;;;5152479;27;19947;-73
2023/09/21 17:33:05;;;;;;;;;;;;;;;;;;5152867;27;19950;-73
2023/09/21 17:35:31;;;;;;;;;;;;;;;;;;5134199;27;19911;-72
2023/09/21 17:40:18;;;;;;;;;;;;;;;;;;5091621;27;19923;-72
2023/09/21 17:42:44;;;;;;;;;;;;;;;;;;5091443;28;19995;-71
2023/09/21 17:45:10;;;;;;;;;;;;;;;;;;5090966;28;19953;-71
2023/09/21 17:47:36;;;;;;;;;;;;;;;;;;5091302;28;19908;-71
2023/09/21 17:51:43;;;;;;;;;;;;;;;;;;5091107;27;19916;-71
2023/09/21 17:57:47;;;;;;;;;;;;;;;;;;5091166;27;20381;-70
2023/09/21 18:00:13;;;;;;;;;;;;;;;;;;5091369;28;19991;-72
2023/09/21 18:02:41;;;;;;;;;;;;;;;;;;5091299;28;19954;-72
2023/09/21 18:05:08;;;;;;;;;;;;;;;;;;5090877;28;20364;-72
2023/09/21 18:07:34;;;;;;;;;;;;;;;;;;5091171;28;19947;-72
2023/09/21 18:12:03;;;;;;;;;;;;;;;;;;5091135;27;19912;-71
2023/09/21 18:14:29;;;;;;;;;;;;;;;;;;5091259;28;19920;-71
2023/09/21 18:18:11;;;;;;;;;;;;;;;;;;5152581;27;20009;-71
2023/09/21 18:23:19;;;;;;;;;;;;;;;;;;5153033;27;20002;-72
2023/09/21 18:25:45;;;;;;;;;;;;;;;;;;5152545;27;19911;-71
2023/09/21 18:28:11;;;;;;;;;;;;;;;;;;5152843;27;19933;-71
2023/09/21 18:30:37;;;;;;;;;;;;;;;;;;5134289;27;19911;-72
2023/09/21 18:33:05;;;;;;;;;;;;;;;;;;5152300;27;19957;-72
2023/09/21 18:35:31;;;;;;;;;;;;;;;;;;5152714;27;19994;-72
2023/09/21 18:38:22;;;;;;;;;;;;;;;;;;5092120;27;19922;-72
2023/09/21 18:42:38;;;;;;;;;;;;;;;;;;5091532;27;19922;-73
2023/09/21 18:47:28;;;;;;;;;;;;;;;;;;5091383;28;19923;-73
2023/09/21 18:51:16;;;;;;;;;;;;;;;;;;5132518;27;20014;-73
2023/09/21 18:53:42;;;;;;;;;;;;;;;;;;5130693;28;20028;-72
2023/09/21 18:56:08;;;;;;;;;;;;;;;;;;5132353;27;19913;-73
2023/09/21 18:58:34;;;;;;;;;;;;;;;;;;5132249;27;19912;-73
2023/09/21 19:01:00;;;;;;;;;;;;;;;;;;5131770;27;20381;-73
2023/09/21 19:03:26;;;;;;;;;;;;;;;;;;5132221;27;19908;-70
2023/09/21 19:05:52;;;;;;;;;;;;;;;;;;5130631;28;20002;-73
2023/09/21 19:08:18;;;;;;;;;;;;;;;;;;5131577;27;19986;-73
2023/09/21 19:10:55;;;;;;;;;;;;;;;;;;5091625;28;19913;-70
2023/09/21 19:13:21;;;;;;;;;;;;;;;;;;5091340;28;19934;-70
2023/09/21 19:17:44;;;;;;;;;;;;;;;;;;5091006;28;20294;-73
2023/09/21 19:22:18;;;;;;;;;;;;;;;;;;5091067;27;19916;-70
2023/09/21 19:24:44;;;;;;;;;;;;;;;;;;5091346;28;19999;-72
2023/09/21 19:32:17;;;;;;;;;;;;;;;;;;5070929;28;19923;-72
2023/09/21 19:34:43;;;;;;;;;;;;;;;;;;5069228;28;19913;-73
2023/09/21 19:37:09;;;;;;;;;;;;;;;;;;5067825;28;20265;-73
2023/09/21 19:43:51;;;;;;;;;;;;;;;;;;5051111;28;19920;-73
2023/09/21 19:46:17;;;;;;;;;;;;;;;;;;5051183;28;19913;-73
2023/09/21 19:48:43;;;;;;;;;;;;;;;;;;5049426;28;19909;-73
2023/09/21 19:51:24;;;;;;;;;;;;;;;;;;5068707;28;20376;-72
2023/09/21 19:56:07;;;;;;;;;;;;;;;;;;5089390;27;19917;-72
2023/09/21 19:58:33;;;;;;;;;;;;;;;;;;5088981;28;19955;-72
2023/09/21 20:00:59;;;;;;;;;;;;;;;;;;5089461;28;19944;-72
2023/09/21 20:04:08;;;;;;;;;;;;;;;;;;5111490;27;19916;-71
2023/09/21 20:06:34;;;;;;;;;;;;;;;;;;5111723;28;20351;-71
2023/09/21 20:09:00;;;;;;;;;;;;;;;;;;5111681;28;19994;-71
2023/09/21 20:11:26;;;;;;;;;;;;;;;;;;5109968;28;19930;-71
2023/09/21 20:13:52;;;;;;;;;;;;;;;;;;5111851;28;19908;-71
2023/09/21 20:16:19;;;;;;;;;;;;;;;;;;5111547;28;19922;-71
2023/09/21 20:25:32;;;;;;;;;;;;;;;;;;5091101;27;19922;-73
2023/09/21 20:31:44;;;;;;;;;;;;;;;;;;5112110;27;20387;-73
2023/09/21 20:34:10;;;;;;;;;;;;;;;;;;5110480;28;20002;-71
2023/09/21 20:36:36;;;;;;;;;;;;;;;;;;5111637;28;20364;-73